createdAt,value
2017-09-12T00:01:57.428Z,8.43
2017-09-12T00:04:24.068Z,11.67
2017-09-12T00:06:50.675Z,5.00
2017-09-12T00:09:17.309Z,4.97
2017-09-12T00:11:43.915Z,4.73
2017-09-12T00:14:10.531Z,8.53
2017-09-12T00:16:37.175Z,11.93
2017-09-12T00:19:03.786Z,9.73
2017-09-12T00:21:30.427Z,12.43
2017-09-12T00:23:57.048Z,11.17
2017-09-12T00:26:23.691Z,5.43
2017-09-12T00:28:50.319Z,8.00
2017-09-12T00:31:16.968Z,3.23
2017-09-12T00:33:43.595Z,9.20
2017-09-12T00:36:10.371Z,6.53
2017-09-12T00:38:36.999Z,5.63
2017-09-12T00:41:03.620Z,12.07
2017-09-12T00:43:30.251Z,8.70
2017-09-12T00:45:56.855Z,7.67
2017-09-12T00:48:23.476Z,6.43
2017-09-12T00:50:50.099Z,6.20
2017-09-12T00:53:16.748Z,7.63
2017-09-12T00:55:43.382Z,16.63
2017-09-12T00:58:09.986Z,10.47
2017-09-12T01:00:36.651Z,16.77
2017-09-12T01:03:03.268Z,10.23
2017-09-12T01:05:29.870Z,7.90
2017-09-12T01:07:56.508Z,5.63
2017-09-12T01:10:23.132Z,9.80
2017-09-12T01:12:49.742Z,9.57
2017-09-12T01:15:16.370Z,7.03
2017-09-12T01:17:42.994Z,9.60
2017-09-12T01:20:09.650Z,5.83
2017-09-12T01:22:36.254Z,10.23
2017-09-12T01:25:02.875Z,7.67
2017-09-12T01:27:29.506Z,9.93
2017-09-12T01:29:56.118Z,7.10
2017-09-12T01:32:22.751Z,7.13
2017-09-12T01:34:49.363Z,11.23
2017-09-12T01:37:16.006Z,15.13
2017-09-12T01:39:42.616Z,7.50
2017-09-12T01:42:09.236Z,4.20
2017-09-12T01:44:39.082Z,9.43
2017-09-12T01:47:05.690Z,3.40
2017-09-12T01:49:35.893Z,9.57
2017-09-12T01:52:03.931Z,3.00
2017-09-12T01:54:30.564Z,9.70
2017-09-12T01:56:57.170Z,6.40
2017-09-12T01:59:23.791Z,9.80
2017-09-12T02:01:50.415Z,12.87
2017-09-12T02:04:17.050Z,11.80
2017-09-12T02:06:43.666Z,9.83
2017-09-12T02:09:10.311Z,9.37
2017-09-12T02:11:36.923Z,8.50
2017-09-12T02:14:03.552Z,8.70
2017-09-12T02:16:30.267Z,5.00
2017-09-12T02:18:56.881Z,5.67
2017-09-12T02:21:23.475Z,4.80
2017-09-12T02:23:50.229Z,4.97
2017-09-12T02:26:16.854Z,9.43
2017-09-12T02:28:43.741Z,4.43
2017-09-12T02:31:10.441Z,4.40
2017-09-12T02:33:37.064Z,7.07
2017-09-12T02:36:03.954Z,4.97
2017-09-12T02:38:30.829Z,14.03
2017-09-12T02:40:57.459Z,5.20
2017-09-12T02:43:24.092Z,8.13
2017-09-12T02:45:50.717Z,6.40
2017-09-12T02:48:17.374Z,4.23
2017-09-12T02:50:44.012Z,4.40
2017-09-12T02:53:10.644Z,6.27
2017-09-12T02:55:37.258Z,6.70
2017-09-12T02:58:03.904Z,6.23
2017-09-12T03:00:30.545Z,4.77
2017-09-12T03:02:57.171Z,4.07
2017-09-12T03:05:23.789Z,5.30
2017-09-12T03:07:50.447Z,9.10
2017-09-12T03:10:17.068Z,7.40
2017-09-12T03:12:43.695Z,14.03
2017-09-12T03:15:10.329Z,8.33
2017-09-12T03:17:36.936Z,5.57
2017-09-12T03:20:03.569Z,7.60
2017-09-12T03:22:30.429Z,3.60
2017-09-12T03:24:57.081Z,6.70
2017-09-12T03:27:23.832Z,4.73
2017-09-12T03:29:50.462Z,4.43
2017-09-12T03:32:17.087Z,3.60
2017-09-12T03:34:43.690Z,3.17
2017-09-12T03:37:10.317Z,4.00
2017-09-12T03:39:36.961Z,5.33
2017-09-12T03:42:03.576Z,5.07
2017-09-12T03:44:30.211Z,3.93
2017-09-12T03:46:56.823Z,5.67
2017-09-12T03:49:23.437Z,5.63
2017-09-12T03:51:50.069Z,3.73
2017-09-12T03:54:16.699Z,7.53
2017-09-12T03:56:43.347Z,3.83
2017-09-12T03:59:09.950Z,8.07
2017-09-12T04:01:36.598Z,5.10
2017-09-12T04:04:03.215Z,6.47
2017-09-12T04:06:29.835Z,4.60
2017-09-12T04:08:56.452Z,4.20
2017-09-12T04:11:23.107Z,6.13
2017-09-12T04:13:49.754Z,4.00
2017-09-12T04:16:16.386Z,8.47
2017-09-12T04:18:43.006Z,5.63
2017-09-12T04:21:09.633Z,9.50
2017-09-12T04:23:36.294Z,8.10
2017-09-12T04:26:02.927Z,5.87
2017-09-12T04:28:29.535Z,10.93
2017-09-12T04:30:56.179Z,5.90
2017-09-12T04:33:22.809Z,9.00
2017-09-12T04:35:49.411Z,13.60
2017-09-12T04:38:16.022Z,14.10
2017-09-12T04:40:42.659Z,9.20
2017-09-12T04:43:09.261Z,9.00
2017-09-12T04:45:35.890Z,11.50
2017-09-12T04:48:02.535Z,16.60
2017-09-12T04:50:29.160Z,9.97
2017-09-12T04:52:55.786Z,13.37
2017-09-12T04:55:22.390Z,6.80
2017-09-12T04:57:49.066Z,11.87
2017-09-12T05:00:15.692Z,8.87
2017-09-12T05:02:42.329Z,10.53
2017-09-12T05:05:08.972Z,9.27
2017-09-12T05:07:35.588Z,10.70
2017-09-12T05:10:02.223Z,17.87
2017-09-12T05:12:28.856Z,12.30
2017-09-12T05:14:55.457Z,14.87
2017-09-12T05:17:22.097Z,12.33
2017-09-12T05:19:48.709Z,12.43
2017-09-12T05:22:15.343Z,13.23
2017-09-12T05:24:41.963Z,9.97
2017-09-12T05:27:08.636Z,11.73
2017-09-12T05:29:35.234Z,10.43
2017-09-12T05:32:01.853Z,11.80
2017-09-12T05:34:28.482Z,10.77
2017-09-12T05:36:55.112Z,12.13
2017-09-12T05:39:21.766Z,16.53
2017-09-12T05:41:48.414Z,11.60
2017-09-12T05:44:15.027Z,19.50
2017-09-12T05:46:41.659Z,13.33
2017-09-12T05:49:08.306Z,30.10
2017-09-12T05:51:34.915Z,16.63
2017-09-12T05:54:01.542Z,14.57
2017-09-12T05:56:28.154Z,18.70
2017-09-12T05:58:54.809Z,21.93
2017-09-12T06:01:21.429Z,18.27
2017-09-12T06:03:48.032Z,17.77
2017-09-12T06:06:14.667Z,15.33
2017-09-12T06:08:41.286Z,18.20
2017-09-12T06:11:07.927Z,13.97
2017-09-12T06:13:34.559Z,16.20
2017-09-12T06:16:01.188Z,13.47
2017-09-12T06:18:27.809Z,16.30
2017-09-12T06:20:54.444Z,14.40
2017-09-12T06:23:21.059Z,16.63
2017-09-12T06:25:47.694Z,16.27
2017-09-12T06:28:14.351Z,20.03
2017-09-12T06:30:40.975Z,16.93
2017-09-12T06:33:07.611Z,19.47
2017-09-12T06:35:34.255Z,15.77
2017-09-12T06:38:00.899Z,14.93
2017-09-12T06:40:27.538Z,18.40
2017-09-12T06:42:54.186Z,21.47
2017-09-12T06:45:21.064Z,12.37
2017-09-12T06:47:47.699Z,15.30
2017-09-12T06:50:14.335Z,17.13
2017-09-12T06:52:40.977Z,10.17
2017-09-12T06:55:07.588Z,15.07
2017-09-12T06:57:34.195Z,10.70
2017-09-12T07:00:00.826Z,13.93
2017-09-12T07:02:27.435Z,11.50
2017-09-12T07:04:54.082Z,17.00
2017-09-12T07:07:20.708Z,14.60
2017-09-12T07:09:47.320Z,21.17
2017-09-12T07:12:13.954Z,15.13
2017-09-12T07:14:40.566Z,15.87
2017-09-12T07:17:07.195Z,9.10
2017-09-12T07:19:33.818Z,10.53
2017-09-12T07:22:00.456Z,8.53
2017-09-12T07:24:27.950Z,16.83
2017-09-12T07:26:54.587Z,10.13
2017-09-12T07:29:21.207Z,14.47
2017-09-12T07:31:47.819Z,11.47
2017-09-12T07:34:14.438Z,9.13
2017-09-12T07:36:41.090Z,11.80
2017-09-12T07:39:07.693Z,13.73
2017-09-12T07:41:34.335Z,14.97
2017-09-12T07:44:00.993Z,7.60
2017-09-12T07:46:27.616Z,14.30
2017-09-12T07:48:54.231Z,16.10
2017-09-12T07:51:20.843Z,11.13
2017-09-12T07:53:47.491Z,13.33
2017-09-12T07:56:14.128Z,12.80
2017-09-12T07:58:40.779Z,12.80
2017-09-12T08:01:07.441Z,14.37
2017-09-12T08:03:34.066Z,12.40
2017-09-12T08:06:00.717Z,12.37
2017-09-12T08:08:27.348Z,12.87
2017-09-12T08:10:53.959Z,10.13
2017-09-12T08:13:20.607Z,13.23
2017-09-12T08:15:47.239Z,13.00
2017-09-12T08:18:13.874Z,14.57
2017-09-12T08:20:40.479Z,9.90
2017-09-12T08:23:07.094Z,14.80
2017-09-12T08:25:33.730Z,11.83
2017-09-12T08:28:00.382Z,12.90
2017-09-12T08:30:26.991Z,10.80
2017-09-12T08:32:53.620Z,17.17
2017-09-12T08:35:20.232Z,15.90
2017-09-12T08:37:46.855Z,13.80
2017-09-12T08:40:13.502Z,17.43
2017-09-12T08:42:40.110Z,16.30
2017-09-12T08:45:06.754Z,20.07
2017-09-12T08:47:33.377Z,12.10
2017-09-12T08:50:00.012Z,9.10
2017-09-12T08:52:26.655Z,11.80
2017-09-12T08:54:53.263Z,13.63
2017-09-12T08:57:19.898Z,14.90
2017-09-12T08:59:46.542Z,12.67
2017-09-12T09:02:13.184Z,9.97
2017-09-12T09:04:39.803Z,10.17
2017-09-12T09:07:06.436Z,6.83
2017-09-12T09:09:33.079Z,6.93
2017-09-12T09:11:59.695Z,11.63
2017-09-12T09:14:26.294Z,8.47
2017-09-12T09:16:52.918Z,9.07
2017-09-12T09:19:19.555Z,7.97
2017-09-12T09:21:46.205Z,9.60
2017-09-12T09:24:12.811Z,12.80
2017-09-12T09:26:39.460Z,10.97
2017-09-12T09:29:06.070Z,8.33
2017-09-12T09:31:32.686Z,10.17
2017-09-12T09:33:59.327Z,9.97
2017-09-12T09:36:25.947Z,9.53
2017-09-12T09:38:52.603Z,10.33
2017-09-12T09:41:19.231Z,7.97
2017-09-12T09:43:45.839Z,6.53
2017-09-12T09:46:12.493Z,9.67
2017-09-12T09:48:39.102Z,8.87
2017-09-12T09:51:05.735Z,8.83
2017-09-12T09:53:32.367Z,8.77
2017-09-12T09:55:59.043Z,13.30
2017-09-12T09:58:25.658Z,9.97
2017-09-12T10:00:52.291Z,12.57
2017-09-12T10:03:18.935Z,10.73
2017-09-12T10:05:45.537Z,19.30
2017-09-12T10:08:12.175Z,12.97
2017-09-12T10:10:38.812Z,10.33
2017-09-12T10:13:05.446Z,7.83
2017-09-12T10:15:32.049Z,5.70
2017-09-12T10:17:58.695Z,11.23
2017-09-12T10:20:25.290Z,8.37
2017-09-12T10:22:51.946Z,10.07
2017-09-12T10:25:18.584Z,7.40
2017-09-12T10:27:45.187Z,22.37
2017-09-12T10:30:11.920Z,7.33
2017-09-12T10:32:38.558Z,7.27
2017-09-12T10:35:05.192Z,10.00
2017-09-12T10:37:31.819Z,11.83
2017-09-12T10:39:58.484Z,8.73
2017-09-12T10:42:25.112Z,8.17
2017-09-12T10:44:51.748Z,13.93
2017-09-12T10:47:18.382Z,7.40
2017-09-12T10:49:45.002Z,4.70
2017-09-12T10:52:11.602Z,7.57
2017-09-12T10:54:38.244Z,11.63
2017-09-12T10:57:04.885Z,9.90
2017-09-12T10:59:31.487Z,6.10
2017-09-12T11:01:58.126Z,4.43
2017-09-12T11:04:24.755Z,7.10
2017-09-12T11:06:51.387Z,9.87
2017-09-12T11:09:18.008Z,8.33
2017-09-12T11:11:44.639Z,4.93
2017-09-12T11:14:11.297Z,4.73
2017-09-12T11:16:37.907Z,3.30
2017-09-12T11:19:04.559Z,9.13
2017-09-12T11:21:31.199Z,8.37
2017-09-12T11:23:57.839Z,4.60
2017-09-12T11:26:24.455Z,5.00
2017-09-12T11:28:51.061Z,8.03
2017-09-12T11:31:17.702Z,8.93
2017-09-12T11:33:44.308Z,4.70
2017-09-12T11:36:10.968Z,9.63
2017-09-12T11:38:37.601Z,5.63
2017-09-12T11:41:04.196Z,7.73
2017-09-12T11:43:30.830Z,5.90
2017-09-12T11:45:57.450Z,6.80
2017-09-12T11:48:24.126Z,9.77
2017-09-12T11:50:50.739Z,7.10
2017-09-12T11:53:17.706Z,8.83
2017-09-12T11:55:44.342Z,4.70
2017-09-12T11:58:10.997Z,10.20
2017-09-12T12:00:37.609Z,6.67
2017-09-12T12:03:04.235Z,2.80
2017-09-12T12:05:30.854Z,6.63
2017-09-12T12:07:57.477Z,7.67
2017-09-12T12:10:24.118Z,6.10
2017-09-12T12:12:50.727Z,4.97
2017-09-12T12:15:17.337Z,7.70
2017-09-12T12:17:44.003Z,6.50
2017-09-12T12:20:10.635Z,5.33
2017-09-12T12:22:37.271Z,2.90
2017-09-12T12:25:03.900Z,3.97
2017-09-12T12:27:30.524Z,4.43
2017-09-12T12:29:57.159Z,4.93
2017-09-12T12:32:23.777Z,3.70
2017-09-12T12:34:50.416Z,8.07
2017-09-12T12:37:17.036Z,2.93
2017-09-12T12:39:43.646Z,7.33
2017-09-12T12:42:10.267Z,2.90
2017-09-12T12:44:36.888Z,8.17
2017-09-12T12:47:03.520Z,6.73
2017-09-12T12:49:30.132Z,6.07
2017-09-12T12:51:56.755Z,5.83
2017-09-12T12:54:23.371Z,5.57
2017-09-12T12:56:50.000Z,7.20
2017-09-12T12:59:16.638Z,8.33
2017-09-12T13:01:43.256Z,4.73
2017-09-12T13:04:09.863Z,7.40
2017-09-12T13:06:36.498Z,5.77
2017-09-12T13:09:03.166Z,3.60
2017-09-12T13:11:29.783Z,11.97
2017-09-12T13:13:56.403Z,3.87
2017-09-12T13:16:23.043Z,3.17
2017-09-12T13:18:49.685Z,3.27
2017-09-12T13:21:16.287Z,2.60
2017-09-12T13:23:42.907Z,3.57
2017-09-12T13:26:09.532Z,3.17
2017-09-12T13:28:36.144Z,3.97
2017-09-12T13:31:02.796Z,8.97
2017-09-12T13:33:29.427Z,6.00
2017-09-12T13:35:56.075Z,2.50
2017-09-12T13:38:22.675Z,1.10
2017-09-12T13:40:49.306Z,9.00
2017-09-12T13:43:15.947Z,3.20
2017-09-12T13:45:42.599Z,5.43
2017-09-12T13:48:09.229Z,3.93
2017-09-12T13:50:35.852Z,7.10
2017-09-12T13:53:02.539Z,3.70
2017-09-12T13:55:29.174Z,6.20
2017-09-12T13:57:55.815Z,3.00
2017-09-12T14:00:22.448Z,3.23
2017-09-12T14:02:49.083Z,3.27
2017-09-12T14:05:15.724Z,3.73
2017-09-12T14:07:42.336Z,2.60
2017-09-12T14:10:08.975Z,7.70
2017-09-12T14:12:35.586Z,3.87
2017-09-12T14:15:02.208Z,5.43
2017-09-12T14:17:28.828Z,6.17
2017-09-12T14:19:55.457Z,6.07
2017-09-12T14:22:22.105Z,3.40
2017-09-12T14:24:48.733Z,6.57
2017-09-12T14:27:15.354Z,3.33
2017-09-12T14:29:41.990Z,4.10
2017-09-12T14:32:08.595Z,4.50
2017-09-12T14:34:35.240Z,4.27
2017-09-12T14:37:01.864Z,7.27
2017-09-12T14:39:28.477Z,6.40
2017-09-12T14:41:55.111Z,6.07
2017-09-12T14:44:21.727Z,6.07
2017-09-12T14:46:48.361Z,2.60
2017-09-12T14:49:14.980Z,3.00
2017-09-12T14:51:41.583Z,4.90
2017-09-12T14:54:08.195Z,4.33
2017-09-12T14:56:34.849Z,7.63
2017-09-12T14:59:01.503Z,6.53
2017-09-12T15:01:28.127Z,3.97
2017-09-12T15:03:54.767Z,3.13
2017-09-12T15:06:21.412Z,10.27
2017-09-12T15:08:48.046Z,3.23
2017-09-12T15:11:14.671Z,6.83
2017-09-12T15:13:41.304Z,3.70
2017-09-12T15:16:07.926Z,7.23
2017-09-12T15:18:34.528Z,2.60
2017-09-12T15:21:01.188Z,12.47
2017-09-12T15:23:27.794Z,4.80
2017-09-12T15:25:54.445Z,3.50
2017-09-12T15:28:21.052Z,4.50
2017-09-12T15:30:47.667Z,3.30
2017-09-12T15:33:14.288Z,5.23
2017-09-12T15:35:40.905Z,3.67
2017-09-12T15:38:07.529Z,6.80
2017-09-12T15:40:34.485Z,4.93
2017-09-12T15:43:01.158Z,4.00
2017-09-12T15:45:27.798Z,3.47
2017-09-12T15:47:54.444Z,2.83
2017-09-12T15:50:21.086Z,4.43
2017-09-12T15:52:47.704Z,5.23
2017-09-12T15:55:14.339Z,8.63
2017-09-12T15:57:41.009Z,3.00
2017-09-12T16:00:07.610Z,3.83
2017-09-12T16:02:34.280Z,3.90
2017-09-12T16:05:00.915Z,4.70
2017-09-12T16:07:27.543Z,3.33
2017-09-12T16:09:54.188Z,2.63
2017-09-12T16:12:20.840Z,4.13
2017-09-12T16:14:47.448Z,4.03
2017-09-12T16:17:14.097Z,3.73
2017-09-12T16:19:40.724Z,3.33
2017-09-12T16:22:07.335Z,7.07
2017-09-12T16:24:33.975Z,6.73
2017-09-12T16:27:00.603Z,6.33
2017-09-12T16:29:27.218Z,2.90
2017-09-12T16:31:53.864Z,6.07
2017-09-12T16:34:20.463Z,5.80
2017-09-12T16:36:47.119Z,3.73
2017-09-12T16:39:13.761Z,5.10
2017-09-12T16:41:40.407Z,3.17
2017-09-12T16:44:07.027Z,4.43
2017-09-12T16:46:33.650Z,5.27
2017-09-12T16:49:00.296Z,4.43
2017-09-12T16:51:26.907Z,8.27
2017-09-12T16:53:53.536Z,5.00
2017-09-12T16:56:20.160Z,3.10
2017-09-12T16:58:46.800Z,1.50
2017-09-12T17:01:13.441Z,7.97
2017-09-12T17:03:40.081Z,6.33
2017-09-12T17:06:06.735Z,6.30
2017-09-12T17:08:33.360Z,5.00
2017-09-12T17:10:59.976Z,4.13
2017-09-12T17:13:26.590Z,9.43
2017-09-12T17:15:53.230Z,7.43
2017-09-12T17:18:19.852Z,4.70
2017-09-12T17:20:46.463Z,5.00
2017-09-12T17:23:13.125Z,7.23
2017-09-12T17:25:39.739Z,5.73
2017-09-12T17:28:06.384Z,5.87
2017-09-12T17:30:33.082Z,4.27
2017-09-12T17:32:59.826Z,8.07
2017-09-12T17:35:26.607Z,6.90
2017-09-12T17:37:53.259Z,7.13
2017-09-12T17:40:19.877Z,7.97
2017-09-12T17:42:46.507Z,6.93
2017-09-12T17:45:13.393Z,4.83
2017-09-12T17:47:40.364Z,7.10
2017-09-12T17:50:07.030Z,8.53
2017-09-12T17:52:33.666Z,5.77
2017-09-12T17:55:00.316Z,6.03
2017-09-12T17:57:27.230Z,4.00
2017-09-12T17:59:54.179Z,4.90
2017-09-12T18:02:21.137Z,6.40
2017-09-12T18:04:48.050Z,4.30
2017-09-12T18:07:14.723Z,5.30
2017-09-12T18:09:41.384Z,8.90
2017-09-12T18:12:08.029Z,5.90
2017-09-12T18:14:34.631Z,5.00
2017-09-12T18:17:01.280Z,6.30
2017-09-12T18:19:27.924Z,5.80
2017-09-12T18:21:54.587Z,5.03
2017-09-12T18:24:21.509Z,5.00
2017-09-12T18:26:48.131Z,6.37
2017-09-12T18:29:14.776Z,3.83
2017-09-12T18:31:41.408Z,5.70
2017-09-12T18:34:08.076Z,4.97
2017-09-12T18:36:34.705Z,3.60
2017-09-12T18:39:01.378Z,5.50
2017-09-12T18:41:28.059Z,3.77
2017-09-12T18:43:54.692Z,4.13
2017-09-12T18:46:21.391Z,6.10
2017-09-12T18:48:48.070Z,8.07
2017-09-12T18:51:14.760Z,4.83
2017-09-12T18:53:41.775Z,3.43
2017-09-12T18:56:08.459Z,5.20
2017-09-12T18:58:35.371Z,3.33
2017-09-12T19:01:02.350Z,3.80
2017-09-12T19:03:29.016Z,3.93
2017-09-12T19:05:55.671Z,2.90
2017-09-12T19:08:22.351Z,5.87
2017-09-12T19:10:48.981Z,6.73
2017-09-12T19:13:15.924Z,4.70
2017-09-12T19:15:42.572Z,4.00
2017-09-12T19:18:09.198Z,3.50
2017-09-12T19:20:35.857Z,5.60
2017-09-12T19:23:02.493Z,6.77
2017-09-12T19:25:29.152Z,5.20
2017-09-12T19:27:55.791Z,3.20
2017-09-12T19:30:22.463Z,2.87
2017-09-12T19:32:49.080Z,6.40
2017-09-12T19:35:15.723Z,5.10
2017-09-12T19:37:42.357Z,4.30
2017-09-12T19:40:08.968Z,4.70
2017-09-12T19:42:35.635Z,6.60
2017-09-12T19:45:02.267Z,3.33
2017-09-12T19:47:28.944Z,6.43
2017-09-12T19:49:55.591Z,3.00
2017-09-12T19:52:22.245Z,6.60
2017-09-12T19:54:48.873Z,6.67
2017-09-12T19:57:15.514Z,4.50
2017-09-12T19:59:42.147Z,8.87
2017-09-12T20:02:08.788Z,6.60
2017-09-12T20:04:35.432Z,4.13
2017-09-12T20:07:02.087Z,4.00
2017-09-12T20:09:29.138Z,3.97
2017-09-12T20:11:56.117Z,4.77
2017-09-12T20:14:22.769Z,6.63
2017-09-12T20:16:49.398Z,4.73
2017-09-12T20:19:16.060Z,3.80
2017-09-12T20:21:42.682Z,6.90
2017-09-12T20:24:09.662Z,6.50
2017-09-12T20:26:36.289Z,2.27
2017-09-12T20:29:02.931Z,5.83
2017-09-12T20:31:29.598Z,3.03
2017-09-12T20:33:56.274Z,5.90
2017-09-12T20:36:22.907Z,3.90
2017-09-12T20:38:49.565Z,5.03
2017-09-12T20:41:16.185Z,5.07
2017-09-12T20:43:42.853Z,4.23
2017-09-12T20:46:09.469Z,7.43
2017-09-12T20:48:36.137Z,8.20
2017-09-12T20:51:02.811Z,9.83
2017-09-12T20:53:29.419Z,5.57
2017-09-12T20:55:56.055Z,2.80
2017-09-12T20:58:22.681Z,4.80
2017-09-12T21:00:49.308Z,6.80
2017-09-12T21:03:15.943Z,6.23
2017-09-12T21:05:42.592Z,4.20
2017-09-12T21:08:09.233Z,3.87
2017-09-12T21:10:35.861Z,7.03
2017-09-12T21:13:02.512Z,2.90
2017-09-12T21:15:29.125Z,4.43
2017-09-12T21:17:55.736Z,5.03
2017-09-12T21:20:22.377Z,6.33
2017-09-12T21:22:49.233Z,8.20
2017-09-12T21:25:15.865Z,5.67
2017-09-12T21:27:42.479Z,5.97
2017-09-12T21:30:09.188Z,5.73
2017-09-12T21:32:35.799Z,2.90
2017-09-12T21:35:02.456Z,3.43
2017-09-12T21:37:29.088Z,4.60
2017-09-12T21:39:55.705Z,6.83
2017-09-12T21:42:22.356Z,8.90
2017-09-12T21:44:48.987Z,5.10
2017-09-12T21:47:15.601Z,5.23
2017-09-12T21:49:42.246Z,9.73
2017-09-12T21:52:08.904Z,5.07
2017-09-12T21:54:35.560Z,2.83
2017-09-12T21:57:02.187Z,6.93
2017-09-12T21:59:28.801Z,5.97
2017-09-12T22:01:55.408Z,6.03
2017-09-12T22:04:22.102Z,4.10
2017-09-12T22:06:48.717Z,4.77
2017-09-12T22:09:15.327Z,9.63
2017-09-12T22:11:41.963Z,6.60
2017-09-12T22:14:08.591Z,1.53
2017-09-12T22:16:35.221Z,8.83
2017-09-12T22:19:02.263Z,6.90
2017-09-12T22:21:28.931Z,3.47
2017-09-12T22:23:55.576Z,4.90
2017-09-12T22:26:22.207Z,4.90
2017-09-12T22:28:48.863Z,6.93
2017-09-12T22:31:15.470Z,10.10
2017-09-12T22:33:42.122Z,3.23
2017-09-12T22:36:08.737Z,9.90
2017-09-12T22:38:35.367Z,10.13
2017-09-12T22:41:02.022Z,4.87
2017-09-12T22:43:28.650Z,5.57
2017-09-12T22:45:55.285Z,3.03
2017-09-12T22:48:21.917Z,4.03
2017-09-12T22:50:48.584Z,4.43
2017-09-12T22:53:15.208Z,3.17
2017-09-12T22:55:41.832Z,9.67
2017-09-12T22:58:08.453Z,7.63
2017-09-12T23:00:35.079Z,4.53
2017-09-12T23:03:01.680Z,3.43
2017-09-12T23:05:28.307Z,8.67
2017-09-12T23:07:54.948Z,6.80
2017-09-12T23:10:21.599Z,7.73
2017-09-12T23:12:48.612Z,4.17
2017-09-12T23:15:15.268Z,4.50
2017-09-12T23:17:41.930Z,6.70
2017-09-12T23:20:08.880Z,3.10
2017-09-12T23:22:35.499Z,8.97
2017-09-12T23:25:02.142Z,3.50
2017-09-12T23:27:28.771Z,12.07
2017-09-12T23:29:55.383Z,6.17
2017-09-12T23:32:22.072Z,7.30
2017-09-12T23:34:48.712Z,3.30
2017-09-12T23:37:15.369Z,18.60
2017-09-12T23:39:42.008Z,5.03
2017-09-12T23:42:08.664Z,6.17
2017-09-12T23:44:35.299Z,3.37
2017-09-12T23:47:01.942Z,9.17
2017-09-12T23:49:28.568Z,5.57
2017-09-12T23:51:55.167Z,6.43
2017-09-12T23:54:21.783Z,4.57
2017-09-12T23:56:48.748Z,2.53
2017-09-12T23:59:15.376Z,9.53
